Time;durP1;ratioP1;P1;durP2;ratioP2;P2;SDS_P1;SDS_P2;PMS_P1;PMS_P2;Temp;Humidity;BMP_temperature;BMP_pressure;BME280_temperature;BME280_humidity;BME280_pressure;Samples;Min_cycle;Max_cycle;Signal;HPM_P1;HPM_P2
2023/10/29 00:00:13;;;;;;;3.70;1.92;;;9.50;99.90;;;;;;5004049;28;20214;-86
2023/10/29 00:02:39;;;;;;;7.22;2.17;;;9.50;99.90;;;;;;4995803;28;20184;-83
2023/10/29 00:05:05;;;;;;;6.03;2.10;;;9.50;99.90;;;;;;4995414;28;20212;-83
2023/10/29 00:07:30;;;;;;;4.45;2.05;;;9.60;99.90;;;;;;4995423;28;20184;-83
2023/10/29 00:09:56;;;;;;;2.95;1.67;;;9.60;99.90;;;;;;4995627;28;20183;-82
2023/10/29 00:12:22;;;;;;;6.07;2.00;;;9.60;99.90;;;;;;4995312;28;20607;-82
2023/10/29 00:14:47;;;;;;;5.47;2.17;;;9.60;99.90;;;;;;4995285;28;20194;-84
2023/10/29 00:17:16;;;;;;;4.82;2.10;;;9.50;99.90;;;;;;4996691;28;20258;-85
2023/10/29 00:19:42;;;;;;;4.70;2.25;;;9.60;99.90;;;;;;5001528;28;20199;-84
2023/10/29 00:22:08;;;;;;;5.53;2.13;;;9.60;99.90;;;;;;4996597;28;20184;-84
2023/10/29 00:24:33;;;;;;;3.92;1.90;;;9.60;99.90;;;;;;4996211;28;20646;-87
2023/10/29 00:26:59;;;;;;;6.40;2.10;;;9.60;99.90;;;;;;4995016;28;20629;-81
2023/10/29 00:29:25;;;;;;;8.15;1.45;;;9.60;99.90;;;;;;4996409;28;20588;-82
2023/10/29 00:31:51;;;;;;;3.58;1.80;;;9.60;99.90;;;;;;4995186;28;20244;-81
2023/10/29 00:34:17;;;;;;;8.60;2.03;;;9.70;99.90;;;;;;4994875;28;20764;-83
2023/10/29 00:36:43;;;;;;;4.28;2.20;;;9.70;99.90;;;;;;4998448;28;20241;-84
2023/10/29 00:39:09;;;;;;;5.82;1.63;;;9.70;99.90;;;;;;5001328;28;20222;-81
2023/10/29 00:41:35;;;;;;;4.97;1.52;;;9.70;99.90;;;;;;4996057;28;20176;-84
2023/10/29 00:44:00;;;;;;;3.88;1.83;;;9.80;99.90;;;;;;4999841;28;20215;-83
2023/10/29 00:46:26;;;;;;;3.92;1.63;;;9.80;99.90;;;;;;4998691;28;20208;-82
2023/10/29 00:48:52;;;;;;;5.35;1.70;;;9.80;99.90;;;;;;4997372;28;20337;-82
2023/10/29 00:51:18;;;;;;;5.03;1.50;;;9.80;99.90;;;;;;4999815;28;20242;-83
2023/10/29 00:53:44;;;;;;;8.32;2.00;;;9.90;99.90;;;;;;5004070;28;20172;-84
2023/10/29 00:56:12;;;;;;;10.05;1.92;;;9.90;99.90;;;;;;4995827;28;20187;-84
2023/10/29 00:58:39;;;;;;;5.93;1.83;;;9.90;99.90;;;;;;4995555;28;20614;-86
2023/10/29 01:01:05;;;;;;;5.20;2.05;;;10.00;99.90;;;;;;4995948;28;20172;-84
2023/10/29 01:03:30;;;;;;;6.55;2.00;;;9.90;99.90;;;;;;4995652;28;20270;-81
2023/10/29 01:05:57;;;;;;;6.32;2.30;;;9.90;99.90;;;;;;4995229;28;20203;-81
2023/10/29 01:08:25;;;;;;;5.88;1.98;;;9.90;99.90;;;;;;4995409;28;20638;-80
2023/10/29 01:10:51;;;;;;;3.05;1.73;;;10.00;99.90;;;;;;4995292;28;20502;-81
2023/10/29 01:13:18;;;;;;;5.55;1.85;;;10.00;99.90;;;;;;4995537;28;20253;-81
2023/10/29 01:15:44;;;;;;;4.57;1.73;;;10.00;99.90;;;;;;4995436;28;20182;-79
2023/10/29 01:18:09;;;;;;;5.13;2.03;;;10.00;99.90;;;;;;5001901;28;20175;-81
2023/10/29 01:20:36;;;;;;;4.03;2.03;;;10.10;99.90;;;;;;5001993;28;20198;-80
2023/10/29 01:23:02;;;;;;;4.07;1.90;;;10.10;99.90;;;;;;4995051;28;20179;-81
2023/10/29 01:25:27;;;;;;;6.03;1.80;;;10.10;99.90;;;;;;4995063;28;20176;-80
2023/10/29 01:27:54;;;;;;;6.70;1.90;;;10.10;99.90;;;;;;4995153;28;20650;-81
2023/10/29 01:30:20;;;;;;;3.45;1.80;;;10.20;99.90;;;;;;4993929;28;20180;-82
2023/10/29 01:32:45;;;;;;;4.10;2.00;;;10.20;99.90;;;;;;4995131;28;20183;-81
2023/10/29 01:35:11;;;;;;;5.18;1.90;;;10.30;99.90;;;;;;5000053;28;20229;-80
2023/10/29 01:37:37;;;;;;;3.47;1.30;;;10.30;99.90;;;;;;4995923;28;20180;-80
2023/10/29 01:40:03;;;;;;;4.03;1.52;;;10.40;99.90;;;;;;4994918;28;20534;-81
2023/10/29 01:42:30;;;;;;;6.13;2.05;;;10.40;99.90;;;;;;4994902;28;20180;-81
2023/10/29 01:44:56;;;;;;;9.23;2.25;;;10.40;99.90;;;;;;4994941;28;20290;-81
2023/10/29 01:47:21;;;;;;;6.13;1.92;;;10.40;99.90;;;;;;4994849;28;20306;-80
2023/10/29 01:49:47;;;;;;;5.10;1.80;;;10.40;99.90;;;;;;5007833;28;20231;-80
2023/10/29 01:52:13;;;;;;;5.45;1.73;;;10.50;99.90;;;;;;4994908;28;20191;-82
2023/10/29 01:54:39;;;;;;;6.45;1.60;;;10.50;99.90;;;;;;5001423;28;20180;-81
2023/10/29 01:57:05;;;;;;;4.95;1.75;;;10.50;99.90;;;;;;4993382;28;20266;-81
2023/10/29 01:59:31;;;;;;;5.53;1.52;;;10.50;99.90;;;;;;4993559;28;20180;-80
2023/10/29 02:01:57;;;;;;;5.03;1.52;;;10.50;99.90;;;;;;4994832;28;20183;-81
2023/10/29 02:04:26;;;;;;;4.55;1.63;;;10.50;99.90;;;;;;4994442;28;20208;-81
2023/10/29 02:06:54;;;;;;;2.95;1.30;;;10.50;99.90;;;;;;5001643;28;20180;-81
2023/10/29 02:09:20;;;;;;;2.75;1.20;;;10.50;99.90;;;;;;4994163;28;20180;-81
2023/10/29 02:11:46;;;;;;;2.42;1.25;;;10.50;99.90;;;;;;4994616;28;20521;-81
2023/10/29 02:14:12;;;;;;;2.38;1.05;;;10.50;99.90;;;;;;4994802;28;20218;-80
2023/10/29 02:16:38;;;;;;;4.20;1.08;;;10.50;99.90;;;;;;4994458;28;20210;-81
2023/10/29 02:19:04;;;;;;;2.38;1.10;;;10.50;99.90;;;;;;4996432;28;20183;-80
2023/10/29 02:21:30;;;;;;;3.70;1.30;;;10.50;99.90;;;;;;4996459;28;20180;-80
2023/10/29 02:23:56;;;;;;;8.32;1.27;;;10.50;99.90;;;;;;4994330;28;20218;-82
2023/10/29 02:26:23;;;;;;;4.82;1.33;;;10.50;99.90;;;;;;4994610;28;20176;-81
2023/10/29 02:28:49;;;;;;;3.00;1.02;;;10.50;99.90;;;;;;4993356;28;20192;-81
2023/10/29 02:31:19;;;;;;;2.97;1.00;;;10.60;99.90;;;;;;4994642;28;20622;-82
2023/10/29 02:33:46;;;;;;;2.45;1.20;;;10.60;99.90;;;;;;4994316;28;20589;-81
2023/10/29 02:36:12;;;;;;;3.25;1.27;;;10.60;99.90;;;;;;4993917;28;20251;-83
2023/10/29 02:38:37;;;;;;;4.47;1.17;;;10.60;99.90;;;;;;4994268;28;20180;-81
2023/10/29 02:41:04;;;;;;;3.92;1.52;;;10.60;99.90;;;;;;4994488;28;20183;-84
2023/10/29 02:43:30;;;;;;;2.35;1.27;;;10.60;99.90;;;;;;4994213;28;20204;-82
2023/10/29 02:45:56;;;;;;;8.50;1.55;;;10.60;99.90;;;;;;4994364;28;20509;-84
2023/10/29 02:48:21;;;;;;;4.05;1.08;;;10.60;99.90;;;;;;4994415;28;20237;-82
2023/10/29 02:50:47;;;;;;;4.13;1.38;;;10.60;99.90;;;;;;4996557;28;20322;-85
2023/10/29 02:53:13;;;;;;;2.50;1.15;;;10.60;99.90;;;;;;4994254;28;20543;-80
2023/10/29 02:55:39;;;;;;;2.05;0.85;;;10.60;99.90;;;;;;4993162;28;20187;-80
2023/10/29 02:58:08;;;;;;;3.65;1.13;;;10.70;99.90;;;;;;4994275;28;20176;-81
2023/10/29 03:00:33;;;;;;;3.90;0.98;;;10.70;99.90;;;;;;4992950;28;20184;-81
2023/10/29 03:02:59;;;;;;;3.17;1.00;;;10.70;99.90;;;;;;4994130;28;20364;-81
2023/10/29 03:05:25;;;;;;;4.63;1.02;;;10.70;99.90;;;;;;5001913;28;20179;-81
2023/10/29 03:07:50;;;;;;;1.80;0.88;;;10.70;99.90;;;;;;4992932;28;20202;-81
2023/10/29 03:10:16;;;;;;;5.63;1.15;;;10.70;99.90;;;;;;4992938;28;20630;-83
2023/10/29 03:12:41;;;;;;;2.30;0.93;;;10.70;99.90;;;;;;4993004;28;20188;-82
2023/10/29 03:15:07;;;;;;;3.90;0.98;;;10.70;99.90;;;;;;4994303;28;20231;-82
2023/10/29 03:17:33;;;;;;;3.25;1.00;;;10.70;99.90;;;;;;4993862;28;20246;-83
2023/10/29 03:19:59;;;;;;;2.22;0.90;;;10.70;99.90;;;;;;4999199;28;20172;-82
2023/10/29 03:22:24;;;;;;;3.22;0.98;;;10.70;99.90;;;;;;4996295;28;20190;-82
2023/10/29 03:24:50;;;;;;;3.10;0.90;;;10.80;99.90;;;;;;4997717;28;20207;-82
2023/10/29 03:27:16;;;;;;;2.58;1.00;;;10.80;99.90;;;;;;4997485;28;20187;-85
2023/10/29 03:29:42;;;;;;;1.85;1.02;;;10.80;99.90;;;;;;4997524;28;20195;-81
2023/10/29 03:32:07;;;;;;;3.28;0.90;;;10.80;99.90;;;;;;4997441;28;20199;-83
2023/10/29 03:34:33;;;;;;;2.50;1.00;;;10.80;99.90;;;;;;4996904;28;20634;-82
2023/10/29 03:36:59;;;;;;;1.42;0.80;;;10.90;99.90;;;;;;4995535;28;20266;-81
2023/10/29 03:39:24;;;;;;;4.80;1.02;;;10.90;99.90;;;;;;4996108;28;20510;-81
2023/10/29 03:41:50;;;;;;;3.42;0.80;;;10.90;99.90;;;;;;4996094;28;20238;-80
2023/10/29 03:44:16;;;;;;;3.33;1.00;;;10.90;99.90;;;;;;4995820;28;20556;-81
2023/10/29 03:46:41;;;;;;;1.92;0.80;;;10.90;99.90;;;;;;4997052;28;20238;-81
2023/10/29 03:49:08;;;;;;;2.30;1.00;;;10.90;99.90;;;;;;5000303;28;20253;-81
2023/10/29 03:51:34;;;;;;;2.60;0.82;;;10.90;99.90;;;;;;4998325;28;20168;-81
2023/10/29 03:54:00;;;;;;;1.77;1.00;;;10.90;99.90;;;;;;4996988;28;20513;-81
2023/10/29 03:56:26;;;;;;;2.83;1.10;;;10.90;99.90;;;;;;4995590;28;20222;-81
2023/10/29 03:58:51;;;;;;;2.30;1.13;;;10.80;99.90;;;;;;4996879;28;20516;-81
2023/10/29 04:01:18;;;;;;;4.30;1.20;;;10.80;99.90;;;;;;4996830;28;20176;-81
2023/10/29 04:03:43;;;;;;;2.28;0.98;;;10.90;99.90;;;;;;4995253;28;20278;-83
2023/10/29 04:06:12;;;;;;;2.42;0.70;;;10.90;99.90;;;;;;4995000;28;20188;-81
2023/10/29 04:08:39;;;;;;;2.03;0.73;;;10.90;99.90;;;;;;4995379;28;20266;-81
2023/10/29 04:11:05;;;;;;;3.03;1.08;;;10.90;99.90;;;;;;5001310;28;20238;-81
2023/10/29 04:13:31;;;;;;;2.90;0.70;;;10.90;99.90;;;;;;5005898;28;20274;-82
2023/10/29 04:15:57;;;;;;;4.20;1.08;;;10.90;99.90;;;;;;4995309;28;20188;-82
2023/10/29 04:18:27;;;;;;;4.97;0.93;;;10.90;99.90;;;;;;4996244;28;20191;-80
2023/10/29 04:20:54;;;;;;;3.13;1.30;;;11.00;99.90;;;;;;5001937;28;20180;-82
2023/10/29 04:23:20;;;;;;;2.63;0.90;;;10.90;99.90;;;;;;4996444;28;20555;-81
2023/10/29 04:25:45;;;;;;;4.00;1.15;;;10.90;99.90;;;;;;5003255;28;20187;-80
2023/10/29 04:28:11;;;;;;;3.60;0.98;;;10.90;99.90;;;;;;4995115;28;20606;-81
2023/10/29 04:30:37;;;;;;;2.75;0.90;;;10.90;99.90;;;;;;5004188;28;20183;-81
2023/10/29 04:33:03;;;;;;;3.75;0.90;;;10.90;99.90;;;;;;4995667;28;20661;-81
2023/10/29 04:35:32;;;;;;;1.52;0.70;;;10.90;99.90;;;;;;4996023;28;20611;-82
2023/10/29 04:37:57;;;;;;;2.33;0.80;;;10.90;99.90;;;;;;4996120;28;20629;-81
2023/10/29 04:40:23;;;;;;;1.10;0.55;;;10.90;99.90;;;;;;4996110;28;20199;-81
2023/10/29 04:42:49;;;;;;;2.80;0.70;;;11.00;99.90;;;;;;4996133;28;20199;-83
2023/10/29 04:45:15;;;;;;;1.02;0.60;;;11.10;99.90;;;;;;4995750;28;20282;-81
2023/10/29 04:47:40;;;;;;;3.50;0.90;;;11.10;99.90;;;;;;4994748;28;20657;-83
2023/10/29 04:50:06;;;;;;;3.58;0.77;;;11.30;99.90;;;;;;4999807;28;20235;-83
2023/10/29 04:52:33;;;;;;;5.13;0.93;;;11.30;99.90;;;;;;4996008;28;20214;-83
2023/10/29 04:55:00;;;;;;;1.00;0.80;;;11.40;99.90;;;;;;4995970;28;20183;-84
2023/10/29 04:57:30;;;;;;;3.70;0.95;;;11.40;99.90;;;;;;4995727;28;20231;-86
2023/10/29 04:59:55;;;;;;;3.25;0.80;;;11.50;99.90;;;;;;4995810;28;20188;-83
2023/10/29 05:02:22;;;;;;;1.45;0.63;;;11.50;99.90;;;;;;4994605;28;20287;-88
2023/10/29 05:04:50;;;;;;;2.72;0.70;;;11.50;99.90;;;;;;4994255;28;20693;-85
2023/10/29 05:07:16;;;;;;;3.10;0.90;;;11.50;99.90;;;;;;4995652;28;20283;-86
2023/10/29 05:09:42;;;;;;;2.13;1.20;;;11.50;99.90;;;;;;4995679;28;20631;-84
2023/10/29 05:12:08;;;;;;;2.47;0.85;;;11.50;99.90;;;;;;4995742;28;20176;-80
2023/10/29 05:14:34;;;;;;;2.45;0.85;;;11.60;99.90;;;;;;4995684;28;20622;-85
2023/10/29 05:16:59;;;;;;;3.72;1.00;;;11.60;99.90;;;;;;5000845;28;20184;-84
2023/10/29 05:19:25;;;;;;;2.50;0.70;;;11.60;99.90;;;;;;5000962;28;20229;-85
2023/10/29 05:21:51;;;;;;;2.53;0.80;;;11.70;99.90;;;;;;4994104;28;20180;-88
2023/10/29 05:24:17;;;;;;;3.53;0.75;;;11.70;99.90;;;;;;4995511;28;20265;-89
2023/10/29 05:26:42;;;;;;;4.90;1.20;;;11.70;99.90;;;;;;4995176;28;20229;-87
2023/10/29 05:29:09;;;;;;;1.15;0.60;;;11.70;99.90;;;;;;4994085;28;20239;-82
2023/10/29 05:31:34;;;;;;;2.45;0.73;;;11.80;99.90;;;;;;4993941;28;20187;-82
2023/10/29 05:34:01;;;;;;;2.40;0.82;;;11.80;99.90;;;;;;4993928;28;20525;-84
2023/10/29 05:36:27;;;;;;;4.35;0.90;;;12.00;99.90;;;;;;4993143;28;20184;-85
2023/10/29 05:38:53;;;;;;;1.42;0.80;;;12.00;99.90;;;;;;4993846;28;20243;-84
2023/10/29 05:41:19;;;;;;;1.83;0.82;;;12.10;99.90;;;;;;4995024;28;20222;-84
2023/10/29 05:43:45;;;;;;;4.70;0.90;;;12.20;99.90;;;;;;4993705;28;20226;-81
2023/10/29 05:46:15;;;;;;;1.85;0.65;;;12.10;99.90;;;;;;4993615;28;20183;-82
2023/10/29 05:48:41;;;;;;;4.50;0.65;;;12.20;99.90;;;;;;4994692;28;20179;-80
2023/10/29 05:51:10;;;;;;;9.18;0.82;;;12.20;99.90;;;;;;4988238;28;20180;-82
2023/10/29 05:53:38;;;;;;;3.38;0.93;;;12.30;99.90;;;;;;4993502;28;20183;-79
2023/10/29 05:56:04;;;;;;;5.10;0.82;;;12.30;99.90;;;;;;4993587;28;20635;-79
2023/10/29 05:58:30;;;;;;;3.53;0.75;;;12.40;99.90;;;;;;4994634;28;20176;-81
2023/10/29 06:00:56;;;;;;;1.48;0.63;;;12.30;99.90;;;;;;4994912;28;20694;-82
2023/10/29 06:03:22;;;;;;;1.10;0.57;;;12.30;99.90;;;;;;4994713;28;20235;-81
2023/10/29 06:05:47;;;;;;;1.45;0.63;;;12.30;99.90;;;;;;4986600;28;20214;-84
2023/10/29 06:08:13;;;;;;;1.40;0.63;;;12.30;99.90;;;;;;4994783;28;20176;-81
2023/10/29 06:10:38;;;;;;;1.33;0.60;;;12.20;99.90;;;;;;4994541;28;20520;-81
2023/10/29 06:13:04;;;;;;;2.30;0.98;;;12.20;99.90;;;;;;4994566;28;20525;-83
2023/10/29 06:15:30;;;;;;;2.60;1.00;;;12.20;99.90;;;;;;4993268;28;20198;-81
2023/10/29 06:17:56;;;;;;;2.55;0.77;;;12.20;99.90;;;;;;4993386;28;20180;-80
2023/10/29 06:20:22;;;;;;;1.65;0.70;;;12.20;99.90;;;;;;4999959;28;20684;-83
2023/10/29 06:22:48;;;;;;;1.90;0.77;;;12.30;99.90;;;;;;4993417;28;20532;-86
2023/10/29 06:25:17;;;;;;;1.98;0.90;;;12.20;99.90;;;;;;4993055;28;20254;-81
2023/10/29 06:27:43;;;;;;;1.90;0.82;;;12.30;99.90;;;;;;4992860;28;20198;-81
2023/10/29 06:30:13;;;;;;;1.48;0.90;;;12.30;99.90;;;;;;4994521;28;20183;-79
2023/10/29 06:32:39;;;;;;;2.13;0.60;;;12.20;99.90;;;;;;4993626;28;20342;-83
2023/10/29 06:35:06;;;;;;;3.88;0.75;;;12.20;99.90;;;;;;4994063;28;20199;-82
2023/10/29 06:37:32;;;;;;;3.08;0.70;;;12.20;99.90;;;;;;4994165;28;20186;-82
2023/10/29 06:39:58;;;;;;;2.03;0.80;;;12.30;99.90;;;;;;4994309;28;20258;-80
2023/10/29 06:42:23;;;;;;;3.25;0.95;;;12.30;99.90;;;;;;4994262;28;20179;-81
2023/10/29 06:44:49;;;;;;;3.10;0.90;;;12.30;99.90;;;;;;4994443;28;20211;-83
2023/10/29 06:47:14;;;;;;;2.70;0.63;;;12.40;99.90;;;;;;4993150;28;20567;-80
2023/10/29 06:49:41;;;;;;;1.70;0.75;;;12.40;99.90;;;;;;4999609;28;20281;-82
2023/10/29 06:52:07;;;;;;;2.35;1.00;;;12.50;99.90;;;;;;4994108;28;20230;-83
2023/10/29 06:54:34;;;;;;;2.92;0.68;;;12.50;99.90;;;;;;4994091;28;20211;-81
2023/10/29 06:57:00;;;;;;;3.10;0.80;;;12.50;99.90;;;;;;4997722;28;20259;-81
2023/10/29 06:59:28;;;;;;;2.92;0.75;;;12.50;99.90;;;;;;4998104;28;20188;-83
2023/10/29 07:01:56;;;;;;;2.38;0.75;;;12.50;99.90;;;;;;4996933;28;20192;-83
2023/10/29 07:04:22;;;;;;;3.15;1.00;;;12.60;99.90;;;;;;4996525;28;20219;-82
2023/10/29 07:06:49;;;;;;;1.85;0.95;;;12.60;99.90;;;;;;4988414;28;20180;-88
2023/10/29 07:09:15;;;;;;;5.57;1.30;;;12.60;99.90;;;;;;4997816;28;20292;-81
2023/10/29 07:11:42;;;;;;;4.40;1.10;;;12.80;99.90;;;;;;4997824;28;20225;-85
2023/10/29 07:14:07;;;;;;;4.53;1.30;;;12.80;99.90;;;;;;4996725;28;20230;-81
2023/10/29 07:16:33;;;;;;;2.85;1.20;;;12.80;99.90;;;;;;4996544;28;20634;-82
2023/10/29 07:18:59;;;;;;;2.70;1.20;;;12.90;99.90;;;;;;5000099;28;20529;-81
2023/10/29 07:21:24;;;;;;;3.08;1.35;;;12.90;99.90;;;;;;5000153;28;20252;-82
2023/10/29 07:23:50;;;;;;;7.10;1.40;;;12.90;99.90;;;;;;4997369;28;20204;-82
2023/10/29 07:26:16;;;;;;;4.43;1.30;;;12.90;99.90;;;;;;4996194;28;20184;-87
2023/10/29 07:28:41;;;;;;;3.08;1.27;;;12.90;99.90;;;;;;4996227;28;20907;-82
2023/10/29 07:31:07;;;;;;;2.15;1.00;;;12.90;99.90;;;;;;4997514;28;20183;-81
2023/10/29 07:33:33;;;;;;;3.72;1.40;;;13.00;99.90;;;;;;4997369;28;20206;-88
2023/10/29 07:36:02;;;;;;;3.85;0.90;;;13.00;99.90;;;;;;4995345;28;20180;-85
2023/10/29 07:38:28;;;;;;;5.95;1.30;;;13.10;99.90;;;;;;4995950;28;20184;-81
2023/10/29 07:40:54;;;;;;;3.95;1.05;;;13.10;99.90;;;;;;4997252;28;20242;-80
2023/10/29 07:43:19;;;;;;;3.13;1.10;;;13.10;99.90;;;;;;4995996;28;20186;-86
2023/10/29 07:45:47;;;;;;;3.38;0.98;;;13.10;99.90;;;;;;4997172;28;20184;-82
2023/10/29 07:48:17;;;;;;;1.52;0.80;;;13.10;99.90;;;;;;4995923;28;20242;-82
2023/10/29 07:50:50;;;;;;;3.97;1.00;;;13.10;99.90;;;;;;5000951;28;20239;-90
2023/10/29 07:53:15;;;;;;;5.90;1.20;;;13.20;99.90;;;;;;4995940;28;20230;-84
2023/10/29 07:55:41;;;;;;;5.35;1.20;;;13.20;99.90;;;;;;4995902;28;20184;-85
2023/10/29 07:58:07;;;;;;;2.33;1.00;;;13.20;99.90;;;;;;4995775;28;20180;-83
2023/10/29 08:00:35;;;;;;;2.20;0.90;;;13.30;99.90;;;;;;4997062;28;20214;-83
2023/10/29 08:03:00;;;;;;;2.40;0.90;;;13.30;99.90;;;;;;4995552;28;20637;-82
2023/10/29 08:05:26;;;;;;;2.20;1.08;;;13.30;99.90;;;;;;4995354;28;20195;-84
2023/10/29 08:07:52;;;;;;;2.30;1.00;;;13.30;99.90;;;;;;4994700;28;20207;-82
2023/10/29 08:10:18;;;;;;;3.97;1.02;;;13.40;99.90;;;;;;4995692;28;20571;-82
2023/10/29 08:12:44;;;;;;;3.08;1.00;;;13.40;99.90;;;;;;4995560;28;20520;-83
2023/10/29 08:15:10;;;;;;;1.45;0.85;;;13.40;99.90;;;;;;4995493;28;20187;-86
2023/10/29 08:17:36;;;;;;;3.28;1.10;;;13.50;99.90;;;;;;4996459;28;20183;-86
2023/10/29 08:20:02;;;;;;;2.05;0.98;;;13.50;99.90;;;;;;5000752;28;20222;-84
2023/10/29 08:22:28;;;;;;;2.97;1.00;;;13.50;99.90;;;;;;4994974;28;20569;-86
2023/10/29 08:24:54;;;;;;;4.25;0.82;;;13.60;99.90;;;;;;4988814;28;20215;-84
2023/10/29 08:27:20;;;;;;;4.05;1.10;;;13.60;99.90;;;;;;4995273;28;20646;-83
2023/10/29 08:29:46;;;;;;;3.78;0.95;;;13.60;99.90;;;;;;4999751;28;20180;-87
2023/10/29 08:32:12;;;;;;;1.90;0.88;;;13.60;99.90;;;;;;4999912;28;20501;-85
2023/10/29 08:34:38;;;;;;;4.22;0.93;;;13.60;99.90;;;;;;4996028;28;20184;-84
2023/10/29 08:37:04;;;;;;;3.22;0.80;;;13.60;99.90;;;;;;4994095;28;20243;-89
2023/10/29 08:39:31;;;;;;;4.32;1.10;;;13.60;99.90;;;;;;4995192;28;20183;-87
2023/10/29 08:41:57;;;;;;;1.85;0.80;;;13.50;99.90;;;;;;4995199;28;20262;-84
2023/10/29 08:44:22;;;;;;;4.18;0.93;;;13.60;99.90;;;;;;4994961;28;20218;-85
2023/10/29 08:46:48;;;;;;;3.55;1.00;;;13.50;99.90;;;;;;4994607;28;20180;-84
2023/10/29 08:49:14;;;;;;;2.53;0.77;;;13.50;99.90;;;;;;5002929;28;20243;-87
2023/10/29 08:51:40;;;;;;;2.60;0.90;;;13.60;99.90;;;;;;4994590;28;20184;-86
2023/10/29 08:54:06;;;;;;;6.53;1.23;;;13.60;99.90;;;;;;4996012;28;20602;-89
2023/10/29 08:56:35;;;;;;;5.70;1.23;;;13.60;99.90;;;;;;4994898;28;20194;-84
2023/10/29 08:59:05;;;;;;;6.40;1.38;;;13.60;99.90;;;;;;4994999;28;20176;-89
2023/10/29 09:01:35;;;;;;;2.92;1.20;;;13.60;99.90;;;;;;4994542;28;20191;-84
2023/10/29 09:04:01;;;;;;;2.85;0.98;;;13.70;99.90;;;;;;4994649;28;20262;-83
2023/10/29 09:06:28;;;;;;;3.58;1.42;;;13.70;99.90;;;;;;4994315;28;20279;-87
2023/10/29 09:08:54;;;;;;;3.97;1.35;;;13.70;99.90;;;;;;4996052;28;20176;-88
2023/10/29 09:11:20;;;;;;;4.10;1.30;;;13.80;99.90;;;;;;4995749;28;20186;-85
2023/10/29 09:13:45;;;;;;;1.80;1.10;;;13.80;99.90;;;;;;4994440;28;20192;-86
2023/10/29 09:16:11;;;;;;;2.72;1.23;;;13.90;99.90;;;;;;4995557;28;20515;-83
2023/10/29 09:18:37;;;;;;;4.50;1.20;;;13.90;99.90;;;;;;4994163;28;20183;-85
2023/10/29 09:21:03;;;;;;;4.10;1.10;;;13.90;99.90;;;;;;5000862;28;20187;-85
2023/10/29 09:23:29;;;;;;;2.55;1.15;;;13.90;99.90;;;;;;4994204;28;20651;-86
2023/10/29 09:25:55;;;;;;;2.58;1.30;;;13.90;99.90;;;;;;4995435;28;20176;-83
2023/10/29 09:28:21;;;;;;;5.15;1.00;;;13.90;99.90;;;;;;4994614;28;20191;-85
2023/10/29 09:30:47;;;;;;;3.95;0.80;;;13.90;99.90;;;;;;4994018;28;20196;-83
2023/10/29 09:33:15;;;;;;;1.88;0.80;;;14.00;99.90;;;;;;4994117;28;20190;-83
2023/10/29 09:35:41;;;;;;;1.40;0.70;;;14.00;99.90;;;;;;4994691;28;20187;-83
2023/10/29 09:38:07;;;;;;;4.22;0.75;;;13.90;99.90;;;;;;4995066;28;20187;-84
2023/10/29 09:40:33;;;;;;;1.67;0.60;;;13.80;99.90;;;;;;4994300;28;20183;-86
2023/10/29 09:43:03;;;;;;;2.92;0.80;;;13.90;99.90;;;;;;4993958;28;20183;-84
2023/10/29 09:45:32;;;;;;;1.23;0.70;;;14.00;99.90;;;;;;4993750;28;20585;-88
2023/10/29 09:47:59;;;;;;;2.65;0.90;;;14.10;99.90;;;;;;4993683;28;20331;-86
2023/10/29 09:50:25;;;;;;;2.50;0.65;;;14.20;99.90;;;;;;5000554;28;20240;-85
2023/10/29 09:52:53;;;;;;;0.80;0.52;;;14.30;99.90;;;;;;4993838;28;20179;-84
2023/10/29 09:55:22;;;;;;;4.85;0.90;;;14.40;99.90;;;;;;4994048;28;20179;-86
2023/10/29 09:57:51;;;;;;;1.25;0.40;;;14.50;99.90;;;;;;4994935;28;20619;-87
2023/10/29 10:00:17;;;;;;;1.33;0.70;;;14.60;99.90;;;;;;4993992;28;20187;-86
2023/10/29 10:02:53;;;;;;;2.33;0.73;;;14.70;99.90;;;;;;4994204;28;20273;-86
2023/10/29 10:05:20;;;;;;;1.33;0.50;;;14.70;99.90;;;;;;4993955;28;20211;-86
2023/10/29 10:07:47;;;;;;;1.73;0.50;;;14.80;99.90;;;;;;4996598;28;20183;-86
2023/10/29 10:10:13;;;;;;;4.28;0.50;;;14.80;99.90;;;;;;4998453;28;20188;-85
2023/10/29 10:12:50;;;;;;;1.98;0.82;;;14.90;99.90;;;;;;4993739;28;20184;-90
2023/10/29 10:15:17;;;;;;;1.35;0.50;;;14.80;99.90;;;;;;4993456;28;20190;-87
2023/10/29 10:17:48;;;;;;;1.65;0.70;;;14.80;99.90;;;;;;4993587;28;20207;-90
2023/10/29 10:20:16;;;;;;;3.35;0.70;;;14.80;99.90;;;;;;4993601;28;20188;-85
2023/10/29 10:22:43;;;;;;;0.82;0.50;;;14.80;99.90;;;;;;4993227;28;20615;-87
2023/10/29 10:25:18;;;;;;;1.02;0.60;;;14.90;99.90;;;;;;4993218;28;20216;-86
2023/10/29 10:27:48;;;;;;;1.95;0.50;;;14.90;99.90;;;;;;4993729;28;20187;-87
2023/10/29 10:30:34;;;;;;;2.95;0.60;;;15.00;99.90;;;;;;4995464;28;20184;-83
2023/10/29 10:33:22;;;;;;;1.40;0.60;;;15.00;99.90;;;;;;4991473;28;20247;-88
2023/10/29 10:35:51;;;;;;;1.50;0.77;;;14.90;99.90;;;;;;5001830;28;20265;-85
2023/10/29 10:38:19;;;;;;;0.65;0.60;;;14.90;99.90;;;;;;4993401;28;20184;-85
2023/10/29 10:40:46;;;;;;;1.67;0.70;;;14.90;99.90;;;;;;4997809;28;20180;-82
2023/10/29 10:43:18;;;;;;;0.65;0.40;;;14.80;99.90;;;;;;4998749;28;20206;-88
2023/10/29 10:45:49;;;;;;;3.35;0.70;;;14.80;99.90;;;;;;4998670;28;20230;-85
2023/10/29 10:48:17;;;;;;;1.35;0.50;;;14.90;99.90;;;;;;4998374;28;20509;-84
2023/10/29 10:50:43;;;;;;;1.23;0.40;;;14.90;99.90;;;;;;5003721;28;20247;-90
2023/10/29 10:53:10;;;;;;;1.67;0.50;;;14.90;99.90;;;;;;4997031;28;20184;-87
2023/10/29 10:55:37;;;;;;;2.00;0.55;;;14.90;99.90;;;;;;4998195;28;20180;-83
2023/10/29 10:58:05;;;;;;;1.23;0.50;;;14.80;99.90;;;;;;4997267;28;20183;-87
2023/10/29 11:00:34;;;;;;;4.53;0.75;;;14.80;99.90;;;;;;4998374;28;20188;-87
2023/10/29 11:03:02;;;;;;;1.83;0.85;;;14.80;99.90;;;;;;4997066;28;20180;-87
2023/10/29 11:05:30;;;;;;;1.75;0.50;;;14.90;99.90;;;;;;5006198;28;20531;-89
2023/10/29 11:07:57;;;;;;;3.63;0.70;;;14.90;99.90;;;;;;4996770;28;20187;-88
2023/10/29 11:10:25;;;;;;;4.72;0.70;;;15.00;99.90;;;;;;4997043;28;20187;-90
2023/10/29 11:12:51;;;;;;;1.75;0.60;;;15.00;99.90;;;;;;4997549;28;20285;-86
2023/10/29 11:15:22;;;;;;;3.13;0.63;;;15.00;99.90;;;;;;4996674;28;20635;-86
2023/10/29 11:17:51;;;;;;;0.75;0.45;;;15.10;99.90;;;;;;4988795;28;20523;-87
2023/10/29 11:20:49;;;;;;;1.25;0.70;;;15.00;99.90;;;;;;5002232;28;20693;-85
2023/10/29 11:23:25;;;;;;;3.75;0.50;;;15.00;99.90;;;;;;4992010;28;20191;-87
2023/10/29 11:26:10;;;;;;;2.40;0.60;;;15.00;99.90;;;;;;4988940;28;20266;-92
2023/10/29 11:28:36;;;;;;;1.80;0.60;;;15.00;99.90;;;;;;4997808;28;20631;-87
2023/10/29 11:31:21;;;;;;;2.25;0.55;;;15.00;99.90;;;;;;4997930;28;20215;-88
2023/10/29 11:33:56;;;;;;;2.63;0.55;;;15.00;99.90;;;;;;4997749;28;20263;-84
2023/10/29 11:36:39;;;;;;;1.10;0.50;;;15.00;99.90;;;;;;4997424;28;20732;-86
2023/10/29 11:39:32;;;;;;;5.35;0.70;;;14.90;99.90;;;;;;4990784;28;20179;-87
2023/10/29 11:41:59;;;;;;;1.52;1.15;;;14.80;99.90;;;;;;4987502;28;20578;-87
2023/10/29 11:44:27;;;;;;;1.30;0.40;;;14.80;99.90;;;;;;4996479;28;20212;-88
2023/10/29 11:46:57;;;;;;;1.67;0.50;;;14.80;99.90;;;;;;4996565;28;20202;-88
2023/10/29 11:49:24;;;;;;;1.35;0.70;;;14.80;99.90;;;;;;4996396;28;20588;-90
2023/10/29 11:52:01;;;;;;;1.38;0.60;;;14.80;99.90;;;;;;4996548;28;20188;-90
2023/10/29 11:54:32;;;;;;;0.70;0.50;;;14.90;99.90;;;;;;4996196;28;20187;-86
2023/10/29 11:56:59;;;;;;;3.08;0.70;;;14.90;99.90;;;;;;4995948;28;20645;-93
2023/10/29 11:59:25;;;;;;;1.70;0.60;;;15.00;99.90;;;;;;4996424;28;20526;-89
2023/10/29 12:01:52;;;;;;;2.83;0.45;;;15.00;99.90;;;;;;4996647;28;20184;-94
2023/10/29 12:04:17;;;;;;;2.33;0.63;;;14.90;99.90;;;;;;4996451;28;20207;-91
2023/10/29 12:06:48;;;;;;;1.52;0.80;;;15.00;99.90;;;;;;5004145;28;20199;-90
2023/10/29 12:09:14;;;;;;;3.97;0.55;;;15.00;99.90;;;;;;5003018;28;20531;-91
2023/10/29 12:11:39;;;;;;;1.88;0.70;;;15.00;99.90;;;;;;4997384;28;20191;-91
2023/10/29 12:14:05;;;;;;;1.05;0.60;;;15.00;99.90;;;;;;4997505;28;20191;-90
2023/10/29 12:16:31;;;;;;;1.98;0.50;;;14.90;99.90;;;;;;4996282;28;20188;-91
2023/10/29 12:18:56;;;;;;;1.58;0.65;;;14.90;99.90;;;;;;4998284;28;20698;-88
2023/10/29 12:21:22;;;;;;;1.10;0.75;;;14.90;99.90;;;;;;4999529;28;20271;-91
2023/10/29 12:23:49;;;;;;;2.33;0.60;;;14.90;99.90;;;;;;4987928;28;20557;-92
2023/10/29 12:26:15;;;;;;;0.98;0.65;;;14.90;99.90;;;;;;4996162;28;20242;-89
2023/10/29 12:28:42;;;;;;;4.70;0.88;;;14.90;99.90;;;;;;4996008;28;20271;-91
2023/10/29 12:31:26;;;;;;;4.00;0.70;;;14.90;99.90;;;;;;4996065;28;20208;-90
2023/10/29 12:33:59;;;;;;;1.15;0.68;;;15.00;99.90;;;;;;4995747;28;20190;-89
2023/10/29 12:36:26;;;;;;;2.67;0.50;;;15.10;99.90;;;;;;5003661;28;20630;-89
2023/10/29 12:38:53;;;;;;;4.03;0.70;;;15.10;99.90;;;;;;4991754;28;20188;-85
2023/10/29 12:41:27;;;;;;;2.40;0.60;;;15.10;99.90;;;;;;4991771;28;20188;-89
2023/10/29 12:43:53;;;;;;;6.45;0.70;;;15.10;99.90;;;;;;5001170;28;20209;-89
2023/10/29 12:46:23;;;;;;;1.17;0.43;;;15.10;99.90;;;;;;4991255;28;20226;-90